sensor_id;sensor_type;location;lat;lon;timestamp;pressure;altitude;pressure_sealevel;temperature;humidity
21086;BME280;34247;50.064;19.970;2023-02-20T01:50:50;99829.97;;;3.97;80.40
21086;BME280;34247;50.064;19.970;2023-02-20T01:52:30;99817.00;;;3.93;80.78
21086;BME280;34247;50.064;19.970;2023-02-20T01:53:43;99825.63;;;3.96;80.64
21086;BME280;34247;50.064;19.970;2023-02-20T01:55:19;99832.44;;;4.02;80.62
21086;BME280;34247;50.064;19.970;2023-02-20T01:56:26;99834.94;;;4.06;80.66
21086;BME280;34247;50.064;19.970;2023-02-20T01:57:37;99832.41;;;4.03;80.40
21086;BME280;34247;50.064;19.970;2023-02-20T01:58:48;99830.38;;;4.11;80.57
21086;BME280;34247;50.064;19.970;2023-02-20T02:00:05;99829.50;;;4.11;80.64
21086;BME280;34247;50.064;19.970;2023-02-20T02:01:13;99834.94;;;4.06;80.34
21086;BME280;34247;50.064;19.970;2023-02-20T02:02:19;99828.78;;;4.07;80.33
21086;BME280;34247;50.064;19.970;2023-02-20T02:03:30;99826.19;;;4.06;80.65
21086;BME280;34247;50.064;19.970;2023-02-20T02:04:37;99808.00;;;4.00;80.59
21086;BME280;34247;50.064;19.970;2023-02-20T02:05:47;99817.47;;;4.04;80.94
21086;BME280;34247;50.064;19.970;2023-02-20T02:06:55;99816.44;;;4.09;80.77
21086;BME280;34247;50.064;19.970;2023-02-20T02:08:02;99811.28;;;4.06;80.47
21086;BME280;34247;50.064;19.970;2023-02-20T02:09:28;99802.44;;;4.09;80.53
21086;BME280;34247;50.064;19.970;2023-02-20T02:10:51;99807.63;;;4.10;80.88
21086;BME280;34247;50.064;19.970;2023-02-20T02:12:12;99807.44;;;4.17;80.50
21086;BME280;34247;50.064;19.970;2023-02-20T02:13:19;99789.31;;;4.09;80.37
21086;BME280;34247;50.064;19.970;2023-02-20T02:14:24;99809.25;;;4.14;80.19
21086;BME280;34247;50.064;19.970;2023-02-20T02:15:31;99797.78;;;4.17;80.31
21086;BME280;34247;50.064;19.970;2023-02-20T02:22:06;99791.13;;;4.07;80.82
21086;BME280;34247;50.064;19.970;2023-02-20T02:36:42;99807.63;;;4.10;80.03
21086;BME280;34247;50.064;19.970;2023-02-20T02:38:24;99808.41;;;4.14;80.13
21086;BME280;34247;50.064;19.970;2023-02-20T02:40:11;99804.81;;;4.17;80.22
21086;BME280;34247;50.064;19.970;2023-02-20T02:43:12;99794.50;;;4.10;80.14
21086;BME280;34247;50.064;19.970;2023-02-20T02:45:21;99791.66;;;4.17;79.89
21086;BME280;34247;50.064;19.970;2023-02-20T02:47:01;99779.13;;;4.00;80.09
21086;BME280;34247;50.064;19.970;2023-02-20T02:48:38;99781.28;;;4.13;79.97
21086;BME280;34247;50.064;19.970;2023-02-20T02:49:53;99783.06;;;4.13;79.73
21086;BME280;34247;50.064;19.970;2023-02-20T02:51:17;99783.13;;;4.10;79.65
21086;BME280;34247;50.064;19.970;2023-02-20T02:52:24;99783.06;;;4.11;79.59
21086;BME280;34247;50.064;19.970;2023-02-20T02:54:21;99788.13;;;4.18;79.31
21086;BME280;34247;50.064;19.970;2023-02-20T02:55:32;99783.94;;;4.12;79.62
21086;BME280;34247;50.064;19.970;2023-02-20T02:56:46;99784.63;;;4.17;79.66
21086;BME280;34247;50.064;19.970;2023-02-20T02:57:52;99778.59;;;4.15;79.52
21086;BME280;34247;50.064;19.970;2023-02-20T02:58:57;99784.69;;;4.15;79.42
21086;BME280;34247;50.064;19.970;2023-02-20T03:00:25;99793.19;;;4.24;79.01
21086;BME280;34247;50.064;19.970;2023-02-20T03:01:33;99793.03;;;4.28;78.94
21086;BME280;34247;50.064;19.970;2023-02-20T03:04:01;99779.50;;;4.14;79.00
21086;BME280;34247;50.064;19.970;2023-02-20T03:05:17;99791.56;;;4.20;79.55
21086;BME280;34247;50.064;19.970;2023-02-20T03:06:34;99793.38;;;4.18;79.13
21086;BME280;34247;50.064;19.970;2023-02-20T03:07:44;99788.84;;;4.23;79.18
21086;BME280;34247;50.064;19.970;2023-02-20T03:09:16;99783.59;;;4.23;79.07
21086;BME280;34247;50.064;19.970;2023-02-20T03:10:27;99789.53;;;4.28;78.91
21086;BME280;34247;50.064;19.970;2023-02-20T03:11:59;99780.94;;;4.23;78.94
21086;BME280;34247;50.064;19.970;2023-02-20T03:13:08;99771.41;;;4.20;79.13
21086;BME280;34247;50.064;19.970;2023-02-20T03:14:20;99762.63;;;4.21;78.94
21086;BME280;34247;50.064;19.970;2023-02-20T03:15:52;99753.75;;;4.24;79.03
21086;BME280;34247;50.064;19.970;2023-02-20T03:18:42;99736.22;;;4.24;78.83
21086;BME280;34247;50.064;19.970;2023-02-20T03:19:52;99736.16;;;4.26;79.20
21086;BME280;34247;50.064;19.970;2023-02-20T03:21:09;99727.34;;;4.27;79.07
21086;BME280;34247;50.064;19.970;2023-02-20T03:22:28;99731.03;;;4.23;79.23
21086;BME280;34247;50.064;19.970;2023-02-20T03:23:41;99734.28;;;4.29;79.04
21086;BME280;34247;50.064;19.970;2023-02-20T03:24:51;99724.63;;;4.30;79.12
21086;BME280;34247;50.064;19.970;2023-02-20T03:26:12;99719.72;;;4.21;79.28
21086;BME280;34247;50.064;19.970;2023-02-20T03:27:37;99732.53;;;4.30;78.97
21086;BME280;34247;50.064;19.970;2023-02-20T03:29:13;99740.50;;;4.27;78.92
21086;BME280;34247;50.064;19.970;2023-02-20T03:30:40;99735.31;;;4.25;79.06
21086;BME280;34247;50.064;19.970;2023-02-20T03:32:00;99744.09;;;4.24;78.84
21086;BME280;34247;50.064;19.970;2023-02-20T03:35:05;99724.63;;;4.05;79.39
21086;BME280;34247;50.064;19.970;2023-02-20T03:36:41;99747.13;;;4.13;79.60
21086;BME280;34247;50.064;19.970;2023-02-20T03:38:09;99737.63;;;4.09;79.72
21086;BME280;34247;50.064;19.970;2023-02-20T03:39:39;99733.13;;;4.13;79.97
21086;BME280;34247;50.064;19.970;2023-02-20T03:41:08;99720.09;;;4.10;79.94
21086;BME280;34247;50.064;19.970;2023-02-20T03:42:36;99744.16;;;4.23;79.62
21086;BME280;34247;50.064;19.970;2023-02-20T03:44:07;99744.38;;;4.17;79.68
21086;BME280;34247;50.064;19.970;2023-02-20T03:45:14;99739.13;;;4.17;79.94
21086;BME280;34247;50.064;19.970;2023-02-20T03:46:23;99746.84;;;4.21;79.59
21086;BME280;34247;50.064;19.970;2023-02-20T03:47:31;99730.31;;;4.18;79.57
21086;BME280;34247;50.064;19.970;2023-02-20T03:49:06;99745.75;;;4.27;79.26
21086;BME280;34247;50.064;19.970;2023-02-20T03:50:15;99740.63;;;4.24;79.34
21086;BME280;34247;50.064;19.970;2023-02-20T03:51:22;99733.75;;;4.20;79.43
21086;BME280;34247;50.064;19.970;2023-02-20T03:52:26;99730.91;;;4.26;79.21
21086;BME280;34247;50.064;19.970;2023-02-20T03:53:31;99740.75;;;4.21;79.32
21086;BME280;34247;50.064;19.970;2023-02-20T03:54:37;99737.94;;;4.25;79.28
21086;BME280;34247;50.064;19.970;2023-02-20T03:55:44;99731.09;;;4.21;79.22
21086;BME280;34247;50.064;19.970;2023-02-20T03:56:58;99726.56;;;4.25;79.21
21086;BME280;34247;50.064;19.970;2023-02-20T03:58:10;99734.22;;;4.31;78.98
21086;BME280;34247;50.064;19.970;2023-02-20T03:59:29;99725.59;;;4.27;78.92
21086;BME280;34247;50.064;19.970;2023-02-20T04:00:42;99717.88;;;4.23;78.58
21086;BME280;34247;50.064;19.970;2023-02-20T04:01:55;99734.09;;;4.34;78.71
21086;BME280;34247;50.064;19.970;2023-02-20T04:03:20;99733.44;;;4.29;78.73
21086;BME280;34247;50.064;19.970;2023-02-20T04:04:32;99737.88;;;4.27;78.78
21086;BME280;34247;50.064;19.970;2023-02-20T04:05:43;99738.00;;;4.24;78.93
21086;BME280;34247;50.064;19.970;2023-02-20T04:06:51;99732.16;;;4.15;79.18
21086;BME280;34247;50.064;19.970;2023-02-20T04:08:11;99736.38;;;4.20;78.99
21086;BME280;34247;50.064;19.970;2023-02-20T04:09:24;99742.44;;;4.22;79.04
21086;BME280;34247;50.064;19.970;2023-02-20T04:10:39;99727.81;;;4.14;79.25
21086;BME280;34247;50.064;19.970;2023-02-20T04:11:55;99729.53;;;4.15;79.39
21086;BME280;34247;50.064;19.970;2023-02-20T04:13:06;99721.13;;;4.04;79.12
21086;BME280;34247;50.064;19.970;2023-02-20T04:14:16;99733.00;;;4.16;79.07
21086;BME280;34247;50.064;19.970;2023-02-20T04:15:22;99729.41;;;4.19;79.05
21086;BME280;34247;50.064;19.970;2023-02-20T04:16:30;99731.19;;;4.18;78.99
21086;BME280;34247;50.064;19.970;2023-02-20T04:18:04;99730.66;;;4.08;79.26
21086;BME280;34247;50.064;19.970;2023-02-20T04:19:15;99729.88;;;4.05;79.34
21086;BME280;34247;50.064;19.970;2023-02-20T04:20:19;99724.53;;;4.08;79.00
21086;BME280;34247;50.064;19.970;2023-02-20T04:21:40;99737.50;;;4.12;79.32
21086;BME280;34247;50.064;19.970;2023-02-20T04:22:48;99736.69;;;4.10;79.46
21086;BME280;34247;50.064;19.970;2023-02-20T04:24:08;99729.88;;;4.05;79.27
21086;BME280;34247;50.064;19.970;2023-02-20T04:25:36;99731.63;;;4.06;79.17
21086;BME280;34247;50.064;19.970;2023-02-20T04:26:42;99722.19;;;4.00;79.43
21086;BME280;34247;50.064;19.970;2023-02-20T04:27:47;99725.72;;;3.99;79.38
21086;BME280;34247;50.064;19.970;2023-02-20T04:28:52;99724.88;;;3.97;79.48
21086;BME280;34247;50.064;19.970;2023-02-20T04:30:01;99731.84;;;3.98;79.81
21086;BME280;34247;50.064;19.970;2023-02-20T04:31:13;99740.50;;;4.02;79.69
21086;BME280;34247;50.064;19.970;2023-02-20T04:32:18;99732.63;;;4.02;79.52
21086;BME280;34247;50.064;19.970;2023-02-20T04:33:24;99737.72;;;4.06;79.46
21086;BME280;34247;50.064;19.970;2023-02-20T04:34:29;99723.88;;;4.01;79.24
21086;BME280;34247;50.064;19.970;2023-02-20T04:35:34;99720.56;;;3.96;79.43
21086;BME280;34247;50.064;19.970;2023-02-20T04:36:38;99728.22;;;4.02;79.20
21086;BME280;34247;50.064;19.970;2023-02-20T04:37:43;99718.84;;;3.95;79.16
21086;BME280;34247;50.064;19.970;2023-02-20T04:38:48;99722.25;;;3.99;79.46
21086;BME280;34247;50.064;19.970;2023-02-20T04:40:57;99726.59;;;3.98;79.31
21086;BME280;34247;50.064;19.970;2023-02-20T04:42:01;99715.25;;;3.98;79.15
21086;BME280;34247;50.064;19.970;2023-02-20T04:43:05;99711.66;;;4.00;79.46
21086;BME280;34247;50.064;19.970;2023-02-20T04:44:11;99704.66;;;4.01;79.28
21086;BME280;34247;50.064;19.970;2023-02-20T04:45:33;99701.16;;;4.00;79.21
21086;BME280;34247;50.064;19.970;2023-02-20T04:46:37;99697.72;;;3.98;79.30
21086;BME280;34247;50.064;19.970;2023-02-20T04:47:41;99695.00;;;4.01;79.08
21086;BME280;34247;50.064;19.970;2023-02-20T04:48:44;99697.63;;;4.01;79.33
21086;BME280;34247;50.064;19.970;2023-02-20T04:49:48;99695.09;;;3.98;78.80
21086;BME280;34247;50.064;19.970;2023-02-20T04:50:51;99703.94;;;3.96;79.11
21086;BME280;34247;50.064;19.970;2023-02-20T04:51:56;99690.88;;;3.94;79.01
21086;BME280;34247;50.064;19.970;2023-02-20T04:53:01;99695.16;;;3.97;78.93
21086;BME280;34247;50.064;19.970;2023-02-20T04:54:04;99693.34;;;3.99;79.02
21086;BME280;34247;50.064;19.970;2023-02-20T04:55:11;99696.00;;;3.97;79.03
21086;BME280;34247;50.064;19.970;2023-02-20T04:56:15;99694.19;;;3.99;78.95
21086;BME280;34247;50.064;19.970;2023-02-20T04:57:21;99693.44;;;3.96;79.09
21086;BME280;34247;50.064;19.970;2023-02-20T04:58:24;99698.94;;;3.88;78.75
21086;BME280;34247;50.064;19.970;2023-02-20T04:59:29;99713.00;;;3.87;79.16
21086;BME280;34247;50.064;19.970;2023-02-20T05:00:32;99713.97;;;3.84;79.18
21086;BME280;34247;50.064;19.970;2023-02-20T05:01:36;99706.03;;;3.86;79.05
21086;BME280;34247;50.064;19.970;2023-02-20T05:02:40;99699.94;;;3.85;79.01
21086;BME280;34247;50.064;19.970;2023-02-20T05:03:44;99706.13;;;3.83;78.80
21086;BME280;34247;50.064;19.970;2023-02-20T05:04:49;99705.25;;;3.84;79.10
21086;BME280;34247;50.064;19.970;2023-02-20T05:05:52;99695.53;;;3.86;79.27
21086;BME280;34247;50.064;19.970;2023-02-20T05:06:57;99697.31;;;3.85;78.77
21086;BME280;34247;50.064;19.970;2023-02-20T05:08:07;99701.53;;;3.90;78.75
21086;BME280;34247;50.064;19.970;2023-02-20T05:09:12;99708.53;;;3.89;78.77
21086;BME280;34247;50.064;19.970;2023-02-20T05:10:22;99703.41;;;3.86;79.15
21086;BME280;34247;50.064;19.970;2023-02-20T05:11:26;99705.84;;;3.91;78.79
21086;BME280;34247;50.064;19.970;2023-02-20T05:12:30;99698.75;;;3.94;78.55
21086;BME280;34247;50.064;19.970;2023-02-20T05:13:35;99697.72;;;3.98;78.61
21086;BME280;34247;50.064;19.970;2023-02-20T05:14:38;99691.66;;;3.96;78.23
21086;BME280;34247;50.064;19.970;2023-02-20T05:15:42;99689.81;;;3.98;78.47
21086;BME280;34247;50.064;19.970;2023-02-20T05:16:47;99695.00;;;4.01;78.28
21086;BME280;34247;50.064;19.970;2023-02-20T05:17:54;99695.78;;;4.03;78.22
21086;BME280;34247;50.064;19.970;2023-02-20T05:19:01;99690.53;;;4.03;78.12
21086;BME280;34247;50.064;19.970;2023-02-20T05:20:10;99691.88;;;3.90;77.98
21086;BME280;34247;50.064;19.970;2023-02-20T05:21:14;99686.63;;;3.90;78.20
21086;BME280;34247;50.064;19.970;2023-02-20T05:22:36;99682.94;;;3.96;78.10
21086;BME280;34247;50.064;19.970;2023-02-20T05:23:41;99683.84;;;3.95;78.29
21086;BME280;34247;50.064;19.970;2023-02-20T05:24:48;99683.69;;;3.99;77.97
21086;BME280;34247;50.064;19.970;2023-02-20T05:25:52;99672.22;;;4.02;77.89
21086;BME280;34247;50.064;19.970;2023-02-20T05:26:57;99673.84;;;4.04;77.90
21086;BME280;34247;50.064;19.970;2023-02-20T05:28:01;99668.81;;;3.98;77.46
21086;BME280;34247;50.064;19.970;2023-02-20T05:29:09;99664.53;;;3.96;77.50
21086;BME280;34247;50.064;19.970;2023-02-20T05:30:15;99666.16;;;4.00;77.70
21086;BME280;34247;50.064;19.970;2023-02-20T05:31:18;99661.84;;;3.97;77.45
21086;BME280;34247;50.064;19.970;2023-02-20T05:32:25;99660.19;;;3.95;77.63
21086;BME280;34247;50.064;19.970;2023-02-20T05:33:29;99669.72;;;3.97;77.19
21086;BME280;34247;50.064;19.970;2023-02-20T05:34:33;99666.44;;;3.92;77.25
21086;BME280;34247;50.064;19.970;2023-02-20T05:35:37;99674.34;;;3.91;77.88
21086;BME280;34247;50.064;19.970;2023-02-20T05:36:42;99674.31;;;3.92;77.31
21086;BME280;34247;50.064;19.970;2023-02-20T05:37:46;99669.09;;;3.91;77.37
21086;BME280;34247;50.064;19.970;2023-02-20T05:38:50;99676.09;;;3.92;77.18
21086;BME280;34247;50.064;19.970;2023-02-20T05:39:54;99677.88;;;3.90;77.40
21086;BME280;34247;50.064;19.970;2023-02-20T05:40:58;99674.41;;;3.89;77.31
21086;BME280;34247;50.064;19.970;2023-02-20T05:42:02;99679.50;;;3.94;77.18
21086;BME280;34247;50.064;19.970;2023-02-20T05:43:07;99677.72;;;3.94;76.98
21086;BME280;34247;50.064;19.970;2023-02-20T05:44:11;99680.25;;;3.97;77.40
21086;BME280;34247;50.064;19.970;2023-02-20T05:45:16;99683.09;;;3.91;76.90
21086;BME280;34247;50.064;19.970;2023-02-20T05:46:20;99684.75;;;3.94;77.10
21086;BME280;34247;50.064;19.970;2023-02-20T05:47:24;99683.78;;;3.96;76.94
21086;BME280;34247;50.064;19.970;2023-02-20T05:48:27;99683.91;;;3.93;77.00
21086;BME280;34247;50.064;19.970;2023-02-20T05:49:31;99681.16;;;3.96;76.91
21086;BME280;34247;50.064;19.970;2023-02-20T05:50:36;99677.69;;;3.96;77.02
21086;BME280;34247;50.064;19.970;2023-02-20T05:51:39;99680.25;;;3.97;77.25
21086;BME280;34247;50.064;19.970;2023-02-20T05:52:43;99681.06;;;3.99;76.68
21086;BME280;34247;50.064;19.970;2023-02-20T05:53:47;99678.53;;;3.96;76.39
21086;BME280;34247;50.064;19.970;2023-02-20T05:54:51;99677.78;;;3.93;76.73
21086;BME280;34247;50.064;19.970;2023-02-20T05:55:55;99681.34;;;3.92;76.94
21086;BME280;34247;50.064;19.970;2023-02-20T05:56:59;99687.19;;;3.98;76.68
21086;BME280;34247;50.064;19.970;2023-02-20T05:58:05;99683.13;;;3.90;76.06
21086;BME280;34247;50.064;19.970;2023-02-20T05:59:11;99691.88;;;3.90;76.78
21086;BME280;34247;50.064;19.970;2023-02-20T06:00:16;99689.22;;;3.92;76.63
21086;BME280;34247;50.064;19.970;2023-02-20T06:01:28;99685.56;;;3.96;76.66
21086;BME280;34247;50.064;19.970;2023-02-20T06:02:32;99685.41;;;4.00;76.70
21086;BME280;34247;50.064;19.970;2023-02-20T06:03:38;99686.25;;;4.01;76.64
21086;BME280;34247;50.064;19.970;2023-02-20T06:04:42;99680.81;;;4.05;76.69
21086;BME280;34247;50.064;19.970;2023-02-20T06:05:45;99691.31;;;4.05;76.41
21086;BME280;34247;50.064;19.970;2023-02-20T06:06:49;99700.97;;;4.06;76.20
21086;BME280;34247;50.064;19.970;2023-02-20T06:07:53;99696.56;;;4.07;76.10
21086;BME280;34247;50.064;19.970;2023-02-20T06:08:57;99700.09;;;4.06;76.01
21086;BME280;34247;50.064;19.970;2023-02-20T06:10:03;99697.22;;;4.12;76.41
21086;BME280;34247;50.064;19.970;2023-02-20T06:11:10;99692.69;;;4.17;76.25
21086;BME280;34247;50.064;19.970;2023-02-20T06:12:15;99701.53;;;4.14;75.99
21086;BME280;34247;50.064;19.970;2023-02-20T06:13:20;99699.66;;;4.18;76.02
21086;BME280;34247;50.064;19.970;2023-02-20T06:14:25;99691.81;;;4.17;75.55
21086;BME280;34247;50.064;19.970;2023-02-20T06:15:29;99699.50;;;4.23;75.85
21086;BME280;34247;50.064;19.970;2023-02-20T06:16:34;99694.22;;;4.23;75.71
21086;BME280;34247;50.064;19.970;2023-02-20T06:17:38;99704.53;;;4.29;75.59
21086;BME280;34247;50.064;19.970;2023-02-20T06:18:42;99705.19;;;4.34;75.65
21086;BME280;34247;50.064;19.970;2023-02-20T06:19:46;99700.72;;;4.37;75.64
21086;BME280;34247;50.064;19.970;2023-02-20T06:20:53;99694.53;;;4.38;75.23
21086;BME280;34247;50.064;19.970;2023-02-20T06:21:57;99688.28;;;4.41;75.19
21086;BME280;34247;50.064;19.970;2023-02-20T06:23:04;99697.28;;;4.35;75.28
21086;BME280;34247;50.064;19.970;2023-02-20T06:24:11;99694.47;;;4.40;75.44
21086;BME280;34247;50.064;19.970;2023-02-20T06:25:15;99690.13;;;4.39;74.86
21086;BME280;34247;50.064;19.970;2023-02-20T06:26:20;99691.78;;;4.41;75.28
21086;BME280;34247;50.064;19.970;2023-02-20T06:27:24;99696.03;;;4.46;74.93
21086;BME280;34247;50.064;19.970;2023-02-20T06:28:28;99701.06;;;4.52;74.87
21086;BME280;34247;50.064;19.970;2023-02-20T06:29:32;99694.03;;;4.52;74.53
21086;BME280;34247;50.064;19.970;2023-02-20T06:30:36;99698.53;;;4.49;74.30
21086;BME280;34247;50.064;19.970;2023-02-20T06:31:40;99696.09;;;4.44;74.03
21086;BME280;34247;50.064;19.970;2023-02-20T06:32:44;99698.50;;;4.50;74.37
21086;BME280;34247;50.064;19.970;2023-02-20T06:33:48;99692.09;;;4.57;74.62
21086;BME280;34247;50.064;19.970;2023-02-20T06:34:52;99691.13;;;4.60;73.96
21086;BME280;34247;50.064;19.970;2023-02-20T06:35:56;99693.59;;;4.64;73.94
21086;BME280;34247;50.064;19.970;2023-02-20T06:37:01;99694.66;;;4.59;73.84
21086;BME280;34247;50.064;19.970;2023-02-20T06:38:07;99696.16;;;4.66;73.86
21086;BME280;34247;50.064;19.970;2023-02-20T06:39:14;99696.22;;;4.64;73.63
21086;BME280;34247;50.064;19.970;2023-02-20T06:40:18;99695.09;;;4.70;73.88
21086;BME280;34247;50.064;19.970;2023-02-20T06:41:22;99701.34;;;4.67;73.38
21086;BME280;34247;50.064;19.970;2023-02-20T06:42:26;99697.00;;;4.66;73.18
21086;BME280;34247;50.064;19.970;2023-02-20T06:43:29;99696.88;;;4.69;73.27
21086;BME280;34247;50.064;19.970;2023-02-20T06:44:34;99694.44;;;4.65;72.48
21086;BME280;34247;50.064;19.970;2023-02-20T06:45:38;99705.81;;;4.65;72.99
21086;BME280;34247;50.064;19.970;2023-02-20T06:46:42;99696.78;;;4.73;73.07
21086;BME280;34247;50.064;19.970;2023-02-20T06:47:46;99708.84;;;4.78;73.02
21086;BME280;34247;50.064;19.970;2023-02-20T06:48:54;99704.53;;;4.76;73.19
21086;BME280;34247;50.064;19.970;2023-02-20T06:49:58;99705.31;;;4.78;72.79
21086;BME280;34247;50.064;19.970;2023-02-20T06:51:02;99708.78;;;4.80;73.09
21086;BME280;34247;50.064;19.970;2023-02-20T06:52:09;99702.69;;;4.78;72.86
21086;BME280;34247;50.064;19.970;2023-02-20T06:53:13;99703.63;;;4.77;72.49
21086;BME280;34247;50.064;19.970;2023-02-20T06:54:17;99701.91;;;4.76;72.22
21086;BME280;34247;50.064;19.970;2023-02-20T06:55:27;99700.88;;;4.80;72.41
21086;BME280;34247;50.064;19.970;2023-02-20T06:56:34;99699.81;;;4.85;72.48
21086;BME280;34247;50.064;19.970;2023-02-20T06:57:39;99696.28;;;4.85;72.17
21086;BME280;34247;50.064;19.970;2023-02-20T06:58:45;99690.94;;;4.88;71.88
21086;BME280;34247;50.064;19.970;2023-02-20T06:59:49;99684.81;;;4.87;72.11
21086;BME280;34247;50.064;19.970;2023-02-20T07:00:53;99677.53;;;4.94;72.24
21086;BME280;34247;50.064;19.970;2023-02-20T07:01:57;99680.03;;;4.97;71.97
21086;BME280;34247;50.064;19.970;2023-02-20T07:03:00;99683.59;;;4.96;72.16
21086;BME280;34247;50.064;19.970;2023-02-20T07:04:08;99683.47;;;4.99;72.00
21086;BME280;34247;50.064;19.970;2023-02-20T07:05:17;99685.06;;;5.03;71.78
21086;BME280;34247;50.064;19.970;2023-02-20T07:06:24;99678.03;;;5.04;71.54
21086;BME280;34247;50.064;19.970;2023-02-20T07:07:29;99683.13;;;5.08;71.33
21086;BME280;34247;50.064;19.970;2023-02-20T07:08:36;99679.72;;;5.05;70.93
21086;BME280;34247;50.064;19.970;2023-02-20T07:09:39;99672.63;;;5.07;70.85
21086;BME280;34247;50.064;19.970;2023-02-20T07:10:46;99676.16;;;5.07;70.79
21086;BME280;34247;50.064;19.970;2023-02-20T07:11:51;99663.94;;;5.05;70.73
21086;BME280;34247;50.064;19.970;2023-02-20T07:12:55;99666.56;;;5.05;70.66
21086;BME280;34247;50.064;19.970;2023-02-20T07:13:59;99665.72;;;5.04;70.55
21086;BME280;34247;50.064;19.970;2023-02-20T07:15:06;99656.75;;;5.10;70.76
21086;BME280;34247;50.064;19.970;2023-02-20T07:16:12;99655.69;;;5.14;70.70
21086;BME280;34247;50.064;19.970;2023-02-20T07:17:17;99644.25;;;5.15;70.10
21086;BME280;34247;50.064;19.970;2023-02-20T07:18:20;99638.25;;;5.11;70.43
21086;BME280;34247;50.064;19.970;2023-02-20T07:19:26;99644.84;;;4.99;70.05
21086;BME280;34247;50.064;19.970;2023-02-20T07:20:29;99632.00;;;4.92;69.88
21086;BME280;34247;50.064;19.970;2023-02-20T07:21:33;99640.72;;;4.94;70.17
21086;BME280;34247;50.064;19.970;2023-02-20T07:22:38;99645.97;;;4.94;70.05
21086;BME280;34247;50.064;19.970;2023-02-20T07:23:43;99650.06;;;5.01;70.25
21086;BME280;34247;50.064;19.970;2023-02-20T07:24:51;99643.66;;;5.08;70.14
21086;BME280;34247;50.064;19.970;2023-02-20T07:25:56;99633.84;;;5.12;70.17
21086;BME280;34247;50.064;19.970;2023-02-20T07:26:59;99625.63;;;5.19;70.39
21086;BME280;34247;50.064;19.970;2023-02-20T07:28:03;99623.06;;;5.18;69.76
21086;BME280;34247;50.064;19.970;2023-02-20T07:29:13;99629.63;;;5.30;70.02
21086;BME280;34247;50.064;19.970;2023-02-20T07:30:17;99627.63;;;5.35;69.92
21086;BME280;34247;50.064;19.970;2023-02-20T07:31:21;99633.56;;;5.40;69.45
21086;BME280;34247;50.064;19.970;2023-02-20T07:32:25;99636.66;;;5.49;69.61
21086;BME280;34247;50.064;19.970;2023-02-20T07:33:29;99627.06;;;5.48;69.16
21086;BME280;34247;50.064;19.970;2023-02-20T07:34:33;99628.44;;;5.57;69.52
21086;BME280;34247;50.064;19.970;2023-02-20T07:35:37;99626.47;;;5.62;68.75
21086;BME280;34247;50.064;19.970;2023-02-20T07:36:41;99628.19;;;5.63;69.11
21086;BME280;34247;50.064;19.970;2023-02-20T07:37:45;99632.09;;;5.75;68.95
21086;BME280;34247;50.064;19.970;2023-02-20T07:38:57;99633.34;;;5.87;68.41
21086;BME280;34247;50.064;19.970;2023-02-20T07:40:02;99629.66;;;5.91;67.94
21086;BME280;34247;50.064;19.970;2023-02-20T07:41:09;99633.91;;;5.95;67.51
21086;BME280;34247;50.064;19.970;2023-02-20T07:42:16;99627.44;;;6.02;67.22
21086;BME280;34247;50.064;19.970;2023-02-20T07:43:21;99623.88;;;6.03;66.71
21086;BME280;34247;50.064;19.970;2023-02-20T07:44:24;99630.69;;;6.07;66.63
21086;BME280;34247;50.064;19.970;2023-02-20T07:45:28;99625.09;;;6.15;66.74
21086;BME280;34247;50.064;19.970;2023-02-20T07:46:33;99622.56;;;6.32;67.11
21086;BME280;34247;50.064;19.970;2023-02-20T07:47:37;99616.78;;;6.43;66.31
21086;BME280;34247;50.064;19.970;2023-02-20T07:48:40;99626.03;;;6.51;65.81
21086;BME280;34247;50.064;19.970;2023-02-20T07:49:44;99630.91;;;6.60;65.69
21086;BME280;34247;50.064;19.970;2023-02-20T07:50:48;99637.97;;;6.79;65.50
21086;BME280;34247;50.064;19.970;2023-02-20T07:51:52;99620.97;;;6.84;64.47
21086;BME280;34247;50.064;19.970;2023-02-20T07:52:56;99618.50;;;6.81;63.76
21086;BME280;34247;50.064;19.970;2023-02-20T07:54:01;99607.03;;;6.82;63.26
21086;BME280;34247;50.064;19.970;2023-02-20T07:55:16;99607.25;;;6.95;63.68
21086;BME280;34247;50.064;19.970;2023-02-20T07:56:22;99597.13;;;7.05;63.74
21086;BME280;34247;50.064;19.970;2023-02-20T07:57:35;99593.72;;;7.03;62.76
21086;BME280;34247;50.064;19.970;2023-02-20T07:58:39;99590.53;;;7.13;62.76
21086;BME280;34247;50.064;19.970;2023-02-20T07:59:43;99589.94;;;7.26;63.31
21086;BME280;34247;50.064;19.970;2023-02-20T08:00:48;99584.28;;;7.33;62.60
21086;BME280;34247;50.064;19.970;2023-02-20T08:01:54;99591.72;;;7.42;62.45
21086;BME280;34247;50.064;19.970;2023-02-20T08:02:58;99583.03;;;7.40;62.39
21086;BME280;34247;50.064;19.970;2023-02-20T08:04:06;99580.56;;;7.55;61.96
21086;BME280;34247;50.064;19.970;2023-02-20T08:05:14;99577.03;;;7.71;61.03
21086;BME280;34247;50.064;19.970;2023-02-20T08:06:18;99572.09;;;7.81;61.07
21086;BME280;34247;50.064;19.970;2023-02-20T08:07:23;99579.00;;;8.01;60.36
21086;BME280;34247;50.064;19.970;2023-02-20T08:08:27;99574.97;;;8.27;59.89
21086;BME280;34247;50.064;19.970;2023-02-20T08:09:31;99580.06;;;8.30;57.35
21086;BME280;34247;50.064;19.970;2023-02-20T08:10:38;99579.69;;;8.53;57.34
21086;BME280;34247;50.064;19.970;2023-02-20T08:11:42;99580.81;;;8.81;57.53
21086;BME280;34247;50.064;19.970;2023-02-20T08:12:48;99577.91;;;8.86;57.33
21086;BME280;34247;50.064;19.970;2023-02-20T08:13:52;99581.75;;;8.80;56.94
21086;BME280;34247;50.064;19.970;2023-02-20T08:14:58;99577.56;;;8.92;57.27
21086;BME280;34247;50.064;19.970;2023-02-20T08:16:02;99575.28;;;8.86;56.19
21086;BME280;34247;50.064;19.970;2023-02-20T08:17:10;99587.91;;;8.65;56.49
21086;BME280;34247;50.064;19.970;2023-02-20T08:18:15;99588.00;;;8.47;56.50
21086;BME280;34247;50.064;19.970;2023-02-20T08:19:26;99594.06;;;8.32;56.54
21086;BME280;34247;50.064;19.970;2023-02-20T08:20:30;99586.72;;;8.21;57.53
21086;BME280;34247;50.064;19.970;2023-02-20T08:21:34;99582.00;;;8.11;57.73
21086;BME280;34247;50.064;19.970;2023-02-20T08:22:38;99578.84;;;8.04;57.73